sensor_id;sensor_type;location;lat;lon;timestamp;pressure;altitude;pressure_sealevel;temperature;humidity
48874;BME280;35220;46.204;5.220;2022-09-02T00:01:59;98350.00;;;23.39;41.23
48874;BME280;35220;46.204;5.220;2022-09-02T00:07:00;98346.81;;;23.33;41.23
48874;BME280;35220;46.204;5.220;2022-09-02T00:12:01;98346.53;;;23.23;41.66
48874;BME280;35220;46.204;5.220;2022-09-02T00:17:02;98348.56;;;23.13;41.58
48874;BME280;35220;46.204;5.220;2022-09-02T00:22:03;98346.41;;;22.78;42.33
48874;BME280;35220;46.204;5.220;2022-09-02T00:27:04;98338.72;;;22.36;43.49
48874;BME280;35220;46.204;5.220;2022-09-02T00:32:04;98340.81;;;22.43;42.93
48874;BME280;35220;46.204;5.220;2022-09-02T00:37:05;98340.81;;;22.43;42.96
48874;BME280;35220;46.204;5.220;2022-09-02T00:42:06;98345.09;;;22.23;43.37
48874;BME280;35220;46.204;5.220;2022-09-02T00:47:06;98337.28;;;22.27;43.07
48874;BME280;35220;46.204;5.220;2022-09-02T00:52:20;98340.16;;;22.34;43.43
48874;BME280;35220;46.204;5.220;2022-09-02T00:57:28;98333.06;;;22.38;43.41
48874;BME280;35220;46.204;5.220;2022-09-02T01:02:30;98341.03;;;22.38;42.99
48874;BME280;35220;46.204;5.220;2022-09-02T01:07:33;98337.94;;;22.36;43.43
48874;BME280;35220;46.204;5.220;2022-09-02T01:12:35;98332.19;;;22.34;43.72
48874;BME280;35220;46.204;5.220;2022-09-02T01:17:40;98341.59;;;22.31;44.26
48874;BME280;35220;46.204;5.220;2022-09-02T01:22:41;98332.09;;;22.30;43.83
48874;BME280;35220;46.204;5.220;2022-09-02T01:27:42;98330.53;;;22.29;44.03
48874;BME280;35220;46.204;5.220;2022-09-02T01:32:43;98332.84;;;22.31;44.46
48874;BME280;35220;46.204;5.220;2022-09-02T01:37:44;98320.72;;;22.30;44.58
48874;BME280;35220;46.204;5.220;2022-09-02T01:42:46;98326.00;;;22.30;44.95
48874;BME280;35220;46.204;5.220;2022-09-02T01:47:47;98328.53;;;22.26;45.35
48874;BME280;35220;46.204;5.220;2022-09-02T01:52:47;98322.22;;;22.18;45.52
48874;BME280;35220;46.204;5.220;2022-09-02T01:57:48;98321.44;;;22.18;45.71
48874;BME280;35220;46.204;5.220;2022-09-02T02:02:48;98320.25;;;22.15;45.97
48874;BME280;35220;46.204;5.220;2022-09-02T02:07:49;98319.00;;;22.13;46.43
48874;BME280;35220;46.204;5.220;2022-09-02T02:12:50;98326.84;;;22.09;46.58
48874;BME280;35220;46.204;5.220;2022-09-02T02:17:51;98324.97;;;21.97;46.75
48874;BME280;35220;46.204;5.220;2022-09-02T02:22:51;98318.78;;;21.93;46.78
48874;BME280;35220;46.204;5.220;2022-09-02T02:27:52;98316.13;;;21.93;47.24
48874;BME280;35220;46.204;5.220;2022-09-02T02:32:52;98314.13;;;21.90;47.14
48874;BME280;35220;46.204;5.220;2022-09-02T02:37:53;98318.22;;;21.88;47.23
48874;BME280;35220;46.204;5.220;2022-09-02T02:42:53;98315.13;;;21.86;47.41
48874;BME280;35220;46.204;5.220;2022-09-02T02:47:54;98311.69;;;21.73;47.78
48874;BME280;35220;46.204;5.220;2022-09-02T02:52:54;98314.75;;;21.62;48.08
48874;BME280;35220;46.204;5.220;2022-09-02T02:57:55;98316.75;;;21.53;48.55
48874;BME280;35220;46.204;5.220;2022-09-02T03:03:01;98318.91;;;21.51;48.68
48874;BME280;35220;46.204;5.220;2022-09-02T03:08:06;98312.25;;;21.45;48.91
48874;BME280;35220;46.204;5.220;2022-09-02T03:13:09;98307.03;;;21.36;48.85
48874;BME280;35220;46.204;5.220;2022-09-02T03:18:10;98301.50;;;21.29;49.28
48874;BME280;35220;46.204;5.220;2022-09-02T03:23:11;98307.31;;;21.22;49.46
48874;BME280;35220;46.204;5.220;2022-09-02T03:28:12;98306.94;;;21.33;49.02
48874;BME280;35220;46.204;5.220;2022-09-02T03:33:12;98298.84;;;21.29;49.35
48874;BME280;35220;46.204;5.220;2022-09-02T03:38:13;98294.75;;;21.32;49.01
48874;BME280;35220;46.204;5.220;2022-09-02T03:43:13;98297.09;;;21.33;49.23
48874;BME280;35220;46.204;5.220;2022-09-02T03:48:14;98296.72;;;21.22;49.83
48874;BME280;35220;46.204;5.220;2022-09-02T03:53:15;98307.44;;;21.26;49.58
48874;BME280;35220;46.204;5.220;2022-09-02T03:58:15;98292.91;;;21.32;49.61
48874;BME280;35220;46.204;5.220;2022-09-02T04:03:16;98298.00;;;21.37;49.32
48874;BME280;35220;46.204;5.220;2022-09-02T04:08:18;98302.72;;;21.32;49.64
48874;BME280;35220;46.204;5.220;2022-09-02T04:13:18;98303.06;;;21.30;49.79
48874;BME280;35220;46.204;5.220;2022-09-02T04:18:19;98307.25;;;21.31;49.64
48874;BME280;35220;46.204;5.220;2022-09-02T04:23:20;98302.28;;;21.30;49.74
48874;BME280;35220;46.204;5.220;2022-09-02T04:28:21;98302.94;;;21.26;49.96
48874;BME280;35220;46.204;5.220;2022-09-02T04:33:21;98308.88;;;21.23;50.21
48874;BME280;35220;46.204;5.220;2022-09-02T04:38:22;98311.09;;;21.21;50.14
48874;BME280;35220;46.204;5.220;2022-09-02T04:43:22;98324.66;;;21.20;50.20
48874;BME280;35220;46.204;5.220;2022-09-02T04:48:23;98310.06;;;21.14;50.21
48874;BME280;35220;46.204;5.220;2022-09-02T04:53:23;98296.34;;;21.12;50.56
48874;BME280;35220;46.204;5.220;2022-09-02T04:58:23;98295.91;;;21.10;50.57
48874;BME280;35220;46.204;5.220;2022-09-02T05:03:24;98310.06;;;21.14;50.57
48874;BME280;35220;46.204;5.220;2022-09-02T05:08:27;98318.66;;;21.11;50.87
48874;BME280;35220;46.204;5.220;2022-09-02T05:13:27;98309.81;;;21.06;50.96
48874;BME280;35220;46.204;5.220;2022-09-02T05:18:28;98311.88;;;21.01;50.98
48874;BME280;35220;46.204;5.220;2022-09-02T05:23:29;98299.28;;;20.98;50.93
48874;BME280;35220;46.204;5.220;2022-09-02T05:28:29;98280.88;;;21.01;51.09
48874;BME280;35220;46.204;5.220;2022-09-02T05:33:33;98278.00;;;21.06;51.01
48874;BME280;35220;46.204;5.220;2022-09-02T05:38:39;98278.94;;;21.11;51.10
48874;BME280;35220;46.204;5.220;2022-09-02T05:43:40;98279.69;;;21.11;51.02
48874;BME280;35220;46.204;5.220;2022-09-02T05:48:41;98283.94;;;20.91;51.74
48874;BME280;35220;46.204;5.220;2022-09-02T05:54:00;98281.81;;;20.84;51.98
48874;BME280;35220;46.204;5.220;2022-09-02T05:59:01;98292.38;;;20.63;52.74
48874;BME280;35220;46.204;5.220;2022-09-02T06:04:04;98295.44;;;20.44;53.48
48874;BME280;35220;46.204;5.220;2022-09-02T06:09:05;98305.13;;;20.40;53.55
48874;BME280;35220;46.204;5.220;2022-09-02T06:14:07;98293.63;;;20.57;52.79
48874;BME280;35220;46.204;5.220;2022-09-02T06:19:08;98292.59;;;20.79;52.37
48874;BME280;35220;46.204;5.220;2022-09-02T06:24:10;98303.56;;;20.90;52.32
48874;BME280;35220;46.204;5.220;2022-09-02T06:29:11;98307.28;;;20.89;52.45
48874;BME280;35220;46.204;5.220;2022-09-02T06:34:13;98302.91;;;20.72;53.26
48874;BME280;35220;46.204;5.220;2022-09-02T06:39:17;98294.59;;;21.03;52.51
48874;BME280;35220;46.204;5.220;2022-09-02T06:44:19;98291.34;;;21.31;52.09
48874;BME280;35220;46.204;5.220;2022-09-02T06:49:22;98294.09;;;21.56;51.71
48874;BME280;35220;46.204;5.220;2022-09-02T06:54:23;98309.59;;;21.78;51.28
48874;BME280;35220;46.204;5.220;2022-09-02T06:59:23;98317.69;;;21.94;51.13
48874;BME280;35220;46.204;5.220;2022-09-02T07:04:24;98303.63;;;22.06;51.53
48874;BME280;35220;46.204;5.220;2022-09-02T07:09:43;98304.09;;;22.33;51.00
48874;BME280;35220;46.204;5.220;2022-09-02T07:14:43;98306.72;;;22.45;50.98
48874;BME280;35220;46.204;5.220;2022-09-02T07:19:44;98328.06;;;22.49;50.89
48874;BME280;35220;46.204;5.220;2022-09-02T07:24:44;98329.72;;;22.66;50.83
48874;BME280;35220;46.204;5.220;2022-09-02T07:29:45;98332.38;;;22.66;50.89
48874;BME280;35220;46.204;5.220;2022-09-02T07:34:48;98325.06;;;22.75;50.66
48874;BME280;35220;46.204;5.220;2022-09-02T07:39:48;98310.84;;;22.95;50.36
48874;BME280;35220;46.204;5.220;2022-09-02T07:44:49;98305.06;;;23.06;50.14
48874;BME280;35220;46.204;5.220;2022-09-02T07:49:50;98306.91;;;22.77;49.83
48874;BME280;35220;46.204;5.220;2022-09-02T07:54:50;98293.41;;;22.70;49.84
48874;BME280;35220;46.204;5.220;2022-09-02T07:59:51;98297.59;;;22.83;49.51
48874;BME280;35220;46.204;5.220;2022-09-02T08:04:51;98305.47;;;22.80;49.43
48874;BME280;35220;46.204;5.220;2022-09-02T08:09:52;98304.72;;;22.54;50.05
48874;BME280;35220;46.204;5.220;2022-09-02T08:14:52;98301.22;;;22.91;49.42
48874;BME280;35220;46.204;5.220;2022-09-02T08:19:53;98302.28;;;23.02;49.03
48874;BME280;35220;46.204;5.220;2022-09-02T08:24:53;98303.97;;;22.94;49.17
48874;BME280;35220;46.204;5.220;2022-09-02T08:29:53;98297.78;;;23.47;48.10
48874;BME280;35220;46.204;5.220;2022-09-02T08:34:54;98304.28;;;23.33;48.08
48874;BME280;35220;46.204;5.220;2022-09-02T08:39:54;98292.91;;;23.65;47.38
48874;BME280;35220;46.204;5.220;2022-09-02T08:44:58;98303.59;;;23.81;47.23
48874;BME280;35220;46.204;5.220;2022-09-02T08:50:09;98308.28;;;24.03;46.79
48874;BME280;35220;46.204;5.220;2022-09-02T08:55:21;98307.31;;;24.27;46.34
48874;BME280;35220;46.204;5.220;2022-09-02T09:00:24;98323.03;;;24.33;46.58
48874;BME280;35220;46.204;5.220;2022-09-02T09:05:40;98335.97;;;24.50;45.89
48874;BME280;35220;46.204;5.220;2022-09-02T09:10:58;98331.78;;;24.33;46.06
48874;BME280;35220;46.204;5.220;2022-09-02T09:21:07;98328.53;;;24.75;45.38
48874;BME280;35220;46.204;5.220;2022-09-02T09:26:09;98315.97;;;25.15;44.64
48874;BME280;35220;46.204;5.220;2022-09-02T09:31:12;98321.41;;;25.41;43.89
48874;BME280;35220;46.204;5.220;2022-09-02T09:36:13;98321.16;;;25.70;43.94
48874;BME280;35220;46.204;5.220;2022-09-02T09:41:21;98319.41;;;26.04;42.55
48874;BME280;35220;46.204;5.220;2022-09-02T09:46:27;98322.69;;;26.17;42.98
48874;BME280;35220;46.204;5.220;2022-09-02T09:51:29;98325.88;;;26.26;42.46
48874;BME280;35220;46.204;5.220;2022-09-02T09:56:32;98316.84;;;26.38;42.38
48874;BME280;35220;46.204;5.220;2022-09-02T10:01:34;98313.09;;;26.43;42.26
48874;BME280;35220;46.204;5.220;2022-09-02T10:06:42;98304.88;;;26.55;41.80
48874;BME280;35220;46.204;5.220;2022-09-02T10:12:04;98297.97;;;26.24;41.09
48874;BME280;35220;46.204;5.220;2022-09-02T10:33:41;98301.81;;;25.99;40.55
48874;BME280;35220;46.204;5.220;2022-09-02T10:38:46;98304.28;;;26.12;40.88
48874;BME280;35220;46.204;5.220;2022-09-02T10:49:51;98325.34;;;26.17;40.92
48874;BME280;35220;46.204;5.220;2022-09-02T11:00:15;98327.28;;;26.20;41.54
48874;BME280;35220;46.204;5.220;2022-09-02T11:05:27;98326.47;;;26.43;41.50
48874;BME280;35220;46.204;5.220;2022-09-02T11:10:42;98339.81;;;26.43;41.84
48874;BME280;35220;46.204;5.220;2022-09-02T11:15:51;98343.25;;;26.43;42.16
48874;BME280;35220;46.204;5.220;2022-09-02T11:21:04;98342.28;;;26.55;42.21
48874;BME280;35220;46.204;5.220;2022-09-02T11:26:21;98357.84;;;26.49;42.48
48874;BME280;35220;46.204;5.220;2022-09-02T11:31:29;98363.50;;;25.94;43.50
48874;BME280;35220;46.204;5.220;2022-09-02T11:36:37;98352.22;;;25.82;43.89
48874;BME280;35220;46.204;5.220;2022-09-02T11:41:50;98344.66;;;26.07;43.52
48874;BME280;35220;46.204;5.220;2022-09-02T11:52:25;98341.66;;;26.12;43.31
48874;BME280;35220;46.204;5.220;2022-09-02T11:57:31;98330.84;;;26.28;42.77
48874;BME280;35220;46.204;5.220;2022-09-02T12:02:49;98325.34;;;26.44;42.36
48874;BME280;35220;46.204;5.220;2022-09-02T12:07:50;98343.31;;;26.47;42.47
48874;BME280;35220;46.204;5.220;2022-09-02T12:22:55;98320.97;;;26.89;40.64
48874;BME280;35220;46.204;5.220;2022-09-02T12:28:24;98307.75;;;27.03;39.88
48874;BME280;35220;46.204;5.220;2022-09-02T12:33:30;98283.81;;;27.52;39.69
48874;BME280;35220;46.204;5.220;2022-09-02T12:38:31;98277.84;;;27.73;39.33
48874;BME280;35220;46.204;5.220;2022-09-02T12:43:42;98261.88;;;27.83;37.72
48874;BME280;35220;46.204;5.220;2022-09-02T12:54:14;98247.66;;;27.72;38.93
48874;BME280;35220;46.204;5.220;2022-09-02T12:59:42;98239.34;;;27.88;37.53
48874;BME280;35220;46.204;5.220;2022-09-02T13:05:09;98223.59;;;27.76;37.74
48874;BME280;35220;46.204;5.220;2022-09-02T13:10:29;98220.69;;;27.95;37.49
48874;BME280;35220;46.204;5.220;2022-09-02T13:15:57;98225.59;;;28.59;37.14
48874;BME280;35220;46.204;5.220;2022-09-02T13:31:41;98226.81;;;31.95;33.47
48874;BME280;35220;46.204;5.220;2022-09-02T13:36:43;98213.81;;;32.55;32.61
48874;BME280;35220;46.204;5.220;2022-09-02T13:41:45;98220.75;;;32.84;32.58
48874;BME280;35220;46.204;5.220;2022-09-02T13:46:47;98210.50;;;32.44;32.75
48874;BME280;35220;46.204;5.220;2022-09-02T13:51:51;98209.44;;;32.00;32.47
48874;BME280;35220;46.204;5.220;2022-09-02T13:56:52;98194.16;;;34.40;30.16
48874;BME280;35220;46.204;5.220;2022-09-02T14:01:53;98192.00;;;35.50;28.93
48874;BME280;35220;46.204;5.220;2022-09-02T14:06:53;98188.88;;;35.35;29.38
48874;BME280;35220;46.204;5.220;2022-09-02T14:11:54;98179.09;;;36.13;28.64
48874;BME280;35220;46.204;5.220;2022-09-02T14:17:24;98176.84;;;37.49;25.13
48874;BME280;35220;46.204;5.220;2022-09-02T14:22:27;98170.47;;;38.40;25.64
48874;BME280;35220;46.204;5.220;2022-09-02T14:27:28;98178.13;;;39.69;24.54
48874;BME280;35220;46.204;5.220;2022-09-02T14:32:29;98172.78;;;40.45;23.59
48874;BME280;35220;46.204;5.220;2022-09-02T14:37:30;98172.34;;;40.71;22.95
48874;BME280;35220;46.204;5.220;2022-09-02T14:42:30;98164.63;;;40.70;22.20
48874;BME280;35220;46.204;5.220;2022-09-02T14:47:36;98153.69;;;41.18;20.02
48874;BME280;35220;46.204;5.220;2022-09-02T14:52:44;98147.94;;;41.40;19.95
48874;BME280;35220;46.204;5.220;2022-09-02T14:57:45;98136.53;;;41.41;20.59
48874;BME280;35220;46.204;5.220;2022-09-02T15:02:54;98126.63;;;41.29;18.98
48874;BME280;35220;46.204;5.220;2022-09-02T15:07:55;98131.44;;;40.62;20.29
48874;BME280;35220;46.204;5.220;2022-09-02T15:12:56;98136.63;;;39.75;20.85
48874;BME280;35220;46.204;5.220;2022-09-02T15:17:57;98138.28;;;38.48;21.73
48874;BME280;35220;46.204;5.220;2022-09-02T15:22:57;98129.59;;;38.22;21.65
48874;BME280;35220;46.204;5.220;2022-09-02T15:27:58;98120.53;;;37.72;22.20
48874;BME280;35220;46.204;5.220;2022-09-02T15:33:04;98122.63;;;37.45;22.55
48874;BME280;35220;46.204;5.220;2022-09-02T15:38:04;98117.75;;;37.40;22.53
48874;BME280;35220;46.204;5.220;2022-09-02T15:43:05;98114.69;;;37.16;22.78
48874;BME280;35220;46.204;5.220;2022-09-02T15:48:05;98110.91;;;37.01;23.33
48874;BME280;35220;46.204;5.220;2022-09-02T15:53:06;98111.50;;;36.96;23.16
48874;BME280;35220;46.204;5.220;2022-09-02T15:58:06;98099.47;;;36.84;23.44
48874;BME280;35220;46.204;5.220;2022-09-02T16:03:07;98108.72;;;36.61;23.72
48874;BME280;35220;46.204;5.220;2022-09-02T16:08:08;98103.97;;;36.39;24.00
48874;BME280;35220;46.204;5.220;2022-09-02T16:13:09;98102.41;;;36.12;24.32
48874;BME280;35220;46.204;5.220;2022-09-02T16:18:10;98084.22;;;36.39;24.14
48874;BME280;35220;46.204;5.220;2022-09-02T16:23:10;98084.09;;;35.62;23.89
48874;BME280;35220;46.204;5.220;2022-09-02T16:28:11;98079.88;;;34.69;24.57
48874;BME280;35220;46.204;5.220;2022-09-02T16:33:11;98084.25;;;33.94;23.82
48874;BME280;35220;46.204;5.220;2022-09-02T16:38:12;98088.34;;;33.62;24.49
48874;BME280;35220;46.204;5.220;2022-09-02T16:43:12;98089.06;;;34.22;23.86
48874;BME280;35220;46.204;5.220;2022-09-02T16:48:13;98079.94;;;33.36;24.49
48874;BME280;35220;46.204;5.220;2022-09-02T16:53:14;98072.34;;;32.33;25.60
48874;BME280;35220;46.204;5.220;2022-09-02T16:58:15;98059.13;;;32.15;25.35
48874;BME280;35220;46.204;5.220;2022-09-02T17:03:15;98066.53;;;32.11;25.64
48874;BME280;35220;46.204;5.220;2022-09-02T17:08:16;98066.25;;;32.01;25.83
48874;BME280;35220;46.204;5.220;2022-09-02T17:13:16;98069.56;;;31.82;26.19
48874;BME280;35220;46.204;5.220;2022-09-02T17:18:17;98062.25;;;31.44;26.64
48874;BME280;35220;46.204;5.220;2022-09-02T17:23:17;98043.81;;;31.08;27.32
48874;BME280;35220;46.204;5.220;2022-09-02T17:28:17;98044.94;;;30.62;28.30
48874;BME280;35220;46.204;5.220;2022-09-02T17:33:18;98030.22;;;30.22;29.45
48874;BME280;35220;46.204;5.220;2022-09-02T17:38:18;98030.81;;;29.88;30.41
48874;BME280;35220;46.204;5.220;2022-09-02T17:43:18;98035.47;;;29.76;30.82
48874;BME280;35220;46.204;5.220;2022-09-02T17:48:19;98037.06;;;29.56;31.51
48874;BME280;35220;46.204;5.220;2022-09-02T17:53:21;98040.56;;;29.49;31.82
48874;BME280;35220;46.204;5.220;2022-09-02T17:58:23;98057.09;;;29.30;32.64
48874;BME280;35220;46.204;5.220;2022-09-02T18:03:33;98067.44;;;29.10;34.43
48874;BME280;35220;46.204;5.220;2022-09-02T18:08:59;98075.50;;;28.77;36.97
48874;BME280;35220;46.204;5.220;2022-09-02T18:14:12;98073.50;;;28.35;37.07
48874;BME280;35220;46.204;5.220;2022-09-02T18:19:42;98089.75;;;27.79;39.91
48874;BME280;35220;46.204;5.220;2022-09-02T18:30:48;98167.91;;;24.36;58.57
48874;BME280;35220;46.204;5.220;2022-09-02T18:42:13;98174.66;;;22.98;62.05
48874;BME280;35220;46.204;5.220;2022-09-02T18:47:20;98190.59;;;22.98;55.56
48874;BME280;35220;46.204;5.220;2022-09-02T18:52:24;98194.25;;;23.06;55.56
48874;BME280;35220;46.204;5.220;2022-09-02T18:57:32;98194.38;;;22.97;56.27
48874;BME280;35220;46.204;5.220;2022-09-02T19:07:36;98178.94;;;22.87;56.72
48874;BME280;35220;46.204;5.220;2022-09-02T19:12:58;98199.69;;;22.97;56.73
48874;BME280;35220;46.204;5.220;2022-09-02T19:17:59;98224.31;;;23.10;55.94
48874;BME280;35220;46.204;5.220;2022-09-02T19:23:02;98241.22;;;23.18;56.17
48874;BME280;35220;46.204;5.220;2022-09-02T19:28:05;98229.75;;;23.30;59.93
48874;BME280;35220;46.204;5.220;2022-09-02T19:33:07;98215.69;;;23.29;56.10
48874;BME280;35220;46.204;5.220;2022-09-02T19:38:08;98233.69;;;23.36;56.64
48874;BME280;35220;46.204;5.220;2022-09-02T19:43:09;98242.88;;;23.23;58.03
48874;BME280;35220;46.204;5.220;2022-09-02T19:48:12;98234.06;;;23.34;57.56
48874;BME280;35220;46.204;5.220;2022-09-02T19:58:16;98205.50;;;23.47;57.77
48874;BME280;35220;46.204;5.220;2022-09-02T20:03:17;98204.81;;;23.50;58.24
48874;BME280;35220;46.204;5.220;2022-09-02T20:08:17;98203.34;;;23.53;57.93
48874;BME280;35220;46.204;5.220;2022-09-02T20:13:19;98196.91;;;23.54;57.95
48874;BME280;35220;46.204;5.220;2022-09-02T20:18:22;98190.72;;;23.50;58.33
48874;BME280;35220;46.204;5.220;2022-09-02T20:23:24;98212.25;;;23.45;58.77
48874;BME280;35220;46.204;5.220;2022-09-02T20:28:32;98210.06;;;23.47;58.75
48874;BME280;35220;46.204;5.220;2022-09-02T20:33:48;98213.06;;;23.45;59.55
48874;BME280;35220;46.204;5.220;2022-09-02T20:38:59;98221.78;;;23.46;59.22
48874;BME280;35220;46.204;5.220;2022-09-02T20:50:01;98219.63;;;23.20;60.52
48874;BME280;35220;46.204;5.220;2022-09-02T20:55:21;98222.94;;;23.01;60.40
48874;BME280;35220;46.204;5.220;2022-09-02T21:00:24;98237.69;;;22.86;59.55
48874;BME280;35220;46.204;5.220;2022-09-02T21:05:32;98250.44;;;22.39;62.41
48874;BME280;35220;46.204;5.220;2022-09-02T21:10:41;98255.34;;;22.00;64.76
48874;BME280;35220;46.204;5.220;2022-09-02T21:15:48;98252.25;;;21.74;64.92
48874;BME280;35220;46.204;5.220;2022-09-02T21:20:58;98262.84;;;21.61;64.32
48874;BME280;35220;46.204;5.220;2022-09-02T21:26:13;98264.09;;;21.76;64.66
48874;BME280;35220;46.204;5.220;2022-09-02T21:31:32;98267.19;;;22.03;63.73
48874;BME280;35220;46.204;5.220;2022-09-02T21:36:36;98257.09;;;22.21;62.58
48874;BME280;35220;46.204;5.220;2022-09-02T21:41:42;98315.50;;;22.33;62.29
48874;BME280;35220;46.204;5.220;2022-09-02T21:47:05;98339.88;;;21.90;64.95
48874;BME280;35220;46.204;5.220;2022-09-02T21:52:34;98334.66;;;21.69;64.94
48874;BME280;35220;46.204;5.220;2022-09-02T22:13:29;98318.22;;;21.42;66.59
48874;BME280;35220;46.204;5.220;2022-09-02T22:18:51;98309.91;;;21.64;70.07
48874;BME280;35220;46.204;5.220;2022-09-02T22:23:59;98318.22;;;21.75;65.84
48874;BME280;35220;46.204;5.220;2022-09-02T22:29:02;98310.13;;;21.72;66.92
48874;BME280;35220;46.204;5.220;2022-09-02T22:34:05;98313.81;;;21.92;66.01
48874;BME280;35220;46.204;5.220;2022-09-02T22:39:07;98294.69;;;21.98;66.10
48874;BME280;35220;46.204;5.220;2022-09-02T22:44:11;98308.28;;;22.09;66.04
48874;BME280;35220;46.204;5.220;2022-09-02T22:49:15;98331.94;;;22.02;67.01
48874;BME280;35220;46.204;5.220;2022-09-02T22:54:36;98335.34;;;21.90;67.64
48874;BME280;35220;46.204;5.220;2022-09-02T23:05:02;98348.91;;;21.64;69.20
48874;BME280;35220;46.204;5.220;2022-09-02T23:10:16;98314.41;;;21.52;70.32
48874;BME280;35220;46.204;5.220;2022-09-02T23:15:28;98278.50;;;21.54;70.19
48874;BME280;35220;46.204;5.220;2022-09-02T23:41:35;98308.88;;;21.23;67.99
48874;BME280;35220;46.204;5.220;2022-09-02T23:51:55;98327.97;;;20.96;67.59
48874;BME280;35220;46.204;5.220;2022-09-02T23:57:06;98308.78;;;20.99;67.04
